sensor_id;sensor_type;location;lat;lon;timestamp;P1;durP1;ratioP1;P2;durP2;ratioP2
39886;SDS011;25559;44.738;20.980;2022-08-24T00:01:15;10.57;;;8.10;;
39886;SDS011;25559;44.738;20.980;2022-08-24T00:03:42;13.35;;;9.05;;
39886;SDS011;25559;44.738;20.980;2022-08-24T00:06:11;11.18;;;8.35;;
39886;SDS011;25559;44.738;20.980;2022-08-24T00:08:39;11.25;;;9.15;;
39886;SDS011;25559;44.738;20.980;2022-08-24T00:11:06;12.10;;;9.57;;
39886;SDS011;25559;44.738;20.980;2022-08-24T00:13:32;14.48;;;9.05;;
39886;SDS011;25559;44.738;20.980;2022-08-24T00:15:59;11.43;;;9.18;;
39886;SDS011;25559;44.738;20.980;2022-08-24T00:18:25;9.90;;;8.88;;
39886;SDS011;25559;44.738;20.980;2022-08-24T00:20:51;16.90;;;9.43;;
39886;SDS011;25559;44.738;20.980;2022-08-24T00:23:17;10.38;;;8.65;;
39886;SDS011;25559;44.738;20.980;2022-08-24T00:25:43;12.80;;;9.55;;
39886;SDS011;25559;44.738;20.980;2022-08-24T00:28:10;13.02;;;9.25;;
39886;SDS011;25559;44.738;20.980;2022-08-24T00:30:35;11.45;;;9.27;;
39886;SDS011;25559;44.738;20.980;2022-08-24T00:33:01;11.93;;;8.80;;
39886;SDS011;25559;44.738;20.980;2022-08-24T00:35:27;11.88;;;10.00;;
39886;SDS011;25559;44.738;20.980;2022-08-24T00:37:52;14.50;;;9.65;;
39886;SDS011;25559;44.738;20.980;2022-08-24T00:40:24;12.70;;;9.27;;
39886;SDS011;25559;44.738;20.980;2022-08-24T00:42:54;12.98;;;10.02;;
39886;SDS011;25559;44.738;20.980;2022-08-24T00:45:21;14.10;;;9.85;;
39886;SDS011;25559;44.738;20.980;2022-08-24T00:47:57;17.30;;;9.77;;
39886;SDS011;25559;44.738;20.980;2022-08-24T00:50:37;12.70;;;9.93;;
39886;SDS011;25559;44.738;20.980;2022-08-24T00:53:11;13.10;;;9.60;;
39886;SDS011;25559;44.738;20.980;2022-08-24T00:55:48;11.88;;;9.68;;
39886;SDS011;25559;44.738;20.980;2022-08-24T00:58:19;11.13;;;8.95;;
39886;SDS011;25559;44.738;20.980;2022-08-24T01:00:52;11.25;;;10.15;;
39886;SDS011;25559;44.738;20.980;2022-08-24T01:03:21;13.38;;;9.98;;
39886;SDS011;25559;44.738;20.980;2022-08-24T01:05:47;13.35;;;10.18;;
39886;SDS011;25559;44.738;20.980;2022-08-24T01:08:13;16.42;;;9.77;;
39886;SDS011;25559;44.738;20.980;2022-08-24T01:10:42;11.68;;;9.57;;
39886;SDS011;25559;44.738;20.980;2022-08-24T01:13:11;11.50;;;9.57;;
39886;SDS011;25559;44.738;20.980;2022-08-24T01:15:39;12.30;;;10.27;;
39886;SDS011;25559;44.738;20.980;2022-08-24T01:18:07;13.10;;;9.55;;
39886;SDS011;25559;44.738;20.980;2022-08-24T01:23:55;13.82;;;9.98;;
39886;SDS011;25559;44.738;20.980;2022-08-24T01:26:34;11.55;;;9.93;;
39886;SDS011;25559;44.738;20.980;2022-08-24T01:29:08;12.48;;;11.15;;
39886;SDS011;25559;44.738;20.980;2022-08-24T01:31:37;11.48;;;10.13;;
39886;SDS011;25559;44.738;20.980;2022-08-24T01:34:03;13.95;;;10.02;;
39886;SDS011;25559;44.738;20.980;2022-08-24T01:36:31;14.43;;;9.40;;
39886;SDS011;25559;44.738;20.980;2022-08-24T01:41:57;14.20;;;10.38;;
39886;SDS011;25559;44.738;20.980;2022-08-24T01:44:23;13.20;;;10.38;;
39886;SDS011;25559;44.738;20.980;2022-08-24T01:46:51;10.88;;;9.80;;
39886;SDS011;25559;44.738;20.980;2022-08-24T01:49:19;12.55;;;10.15;;
39886;SDS011;25559;44.738;20.980;2022-08-24T01:51:47;13.63;;;10.30;;
39886;SDS011;25559;44.738;20.980;2022-08-24T01:54:13;11.00;;;9.90;;
39886;SDS011;25559;44.738;20.980;2022-08-24T01:56:40;13.77;;;9.43;;
39886;SDS011;25559;44.738;20.980;2022-08-24T01:59:05;14.40;;;9.88;;
39886;SDS011;25559;44.738;20.980;2022-08-24T02:01:34;14.80;;;10.30;;
39886;SDS011;25559;44.738;20.980;2022-08-24T02:04:03;11.82;;;10.57;;
39886;SDS011;25559;44.738;20.980;2022-08-24T02:06:30;12.45;;;11.15;;
39886;SDS011;25559;44.738;20.980;2022-08-24T02:08:58;13.63;;;10.23;;
39886;SDS011;25559;44.738;20.980;2022-08-24T02:11:24;13.73;;;10.68;;
39886;SDS011;25559;44.738;20.980;2022-08-24T02:13:50;11.30;;;10.15;;
39886;SDS011;25559;44.738;20.980;2022-08-24T02:16:16;12.25;;;10.93;;
39886;SDS011;25559;44.738;20.980;2022-08-24T02:18:41;13.15;;;11.05;;
39886;SDS011;25559;44.738;20.980;2022-08-24T02:21:07;11.32;;;10.13;;
39886;SDS011;25559;44.738;20.980;2022-08-24T02:23:34;16.25;;;10.82;;
39886;SDS011;25559;44.738;20.980;2022-08-24T02:26:04;12.10;;;10.25;;
39886;SDS011;25559;44.738;20.980;2022-08-24T02:28:32;15.57;;;10.70;;
39886;SDS011;25559;44.738;20.980;2022-08-24T02:30:59;13.25;;;10.90;;
39886;SDS011;25559;44.738;20.980;2022-08-24T02:33:25;11.65;;;10.23;;
39886;SDS011;25559;44.738;20.980;2022-08-24T02:35:51;12.88;;;9.82;;
39886;SDS011;25559;44.738;20.980;2022-08-24T02:38:18;13.63;;;10.35;;
39886;SDS011;25559;44.738;20.980;2022-08-24T02:40:45;10.75;;;9.50;;
39886;SDS011;25559;44.738;20.980;2022-08-24T02:43:11;14.02;;;9.93;;
39886;SDS011;25559;44.738;20.980;2022-08-24T02:45:38;11.13;;;9.93;;
39886;SDS011;25559;44.738;20.980;2022-08-24T02:48:05;13.45;;;9.70;;
39886;SDS011;25559;44.738;20.980;2022-08-24T02:50:31;13.15;;;9.90;;
39886;SDS011;25559;44.738;20.980;2022-08-24T02:52:57;13.32;;;10.43;;
39886;SDS011;25559;44.738;20.980;2022-08-24T02:55:23;10.65;;;9.52;;
39886;SDS011;25559;44.738;20.980;2022-08-24T02:57:50;12.63;;;10.32;;
39886;SDS011;25559;44.738;20.980;2022-08-24T03:00:18;15.65;;;9.75;;
39886;SDS011;25559;44.738;20.980;2022-08-24T03:02:52;12.43;;;10.25;;
39886;SDS011;25559;44.738;20.980;2022-08-24T03:05:19;12.43;;;9.68;;
39886;SDS011;25559;44.738;20.980;2022-08-24T03:07:46;13.27;;;10.10;;
39886;SDS011;25559;44.738;20.980;2022-08-24T03:10:12;13.40;;;10.68;;
39886;SDS011;25559;44.738;20.980;2022-08-24T03:12:38;13.38;;;9.95;;
39886;SDS011;25559;44.738;20.980;2022-08-24T03:15:05;13.75;;;10.10;;
39886;SDS011;25559;44.738;20.980;2022-08-24T03:17:35;12.07;;;10.10;;
39886;SDS011;25559;44.738;20.980;2022-08-24T03:20:02;16.30;;;10.40;;
39886;SDS011;25559;44.738;20.980;2022-08-24T03:22:30;11.55;;;9.73;;
39886;SDS011;25559;44.738;20.980;2022-08-24T03:24:56;12.63;;;10.48;;
39886;SDS011;25559;44.738;20.980;2022-08-24T03:27:22;13.73;;;10.18;;
39886;SDS011;25559;44.738;20.980;2022-08-24T03:29:48;12.07;;;9.55;;
39886;SDS011;25559;44.738;20.980;2022-08-24T03:32:14;15.63;;;9.52;;
39886;SDS011;25559;44.738;20.980;2022-08-24T03:34:40;12.07;;;9.45;;
39886;SDS011;25559;44.738;20.980;2022-08-24T03:37:06;15.15;;;10.52;;
39886;SDS011;25559;44.738;20.980;2022-08-24T03:39:32;12.98;;;10.93;;
39886;SDS011;25559;44.738;20.980;2022-08-24T03:41:59;15.95;;;11.27;;
39886;SDS011;25559;44.738;20.980;2022-08-24T03:44:24;12.57;;;10.52;;
39886;SDS011;25559;44.738;20.980;2022-08-24T03:46:52;17.83;;;10.95;;
39886;SDS011;25559;44.738;20.980;2022-08-24T03:49:19;16.77;;;10.68;;
39886;SDS011;25559;44.738;20.980;2022-08-24T03:51:45;15.82;;;11.18;;
39886;SDS011;25559;44.738;20.980;2022-08-24T03:54:11;14.57;;;10.27;;
39886;SDS011;25559;44.738;20.980;2022-08-24T03:56:39;16.45;;;11.60;;
39886;SDS011;25559;44.738;20.980;2022-08-24T03:59:05;14.50;;;10.80;;
39886;SDS011;25559;44.738;20.980;2022-08-24T04:01:37;14.70;;;11.52;;
39886;SDS011;25559;44.738;20.980;2022-08-24T04:04:03;12.85;;;11.50;;
39886;SDS011;25559;44.738;20.980;2022-08-24T04:06:33;14.07;;;11.30;;
39886;SDS011;25559;44.738;20.980;2022-08-24T04:08:59;14.15;;;10.90;;
39886;SDS011;25559;44.738;20.980;2022-08-24T04:11:26;19.23;;;11.50;;
39886;SDS011;25559;44.738;20.980;2022-08-24T04:13:53;15.05;;;12.55;;
39886;SDS011;25559;44.738;20.980;2022-08-24T04:16:22;17.15;;;12.57;;
39886;SDS011;25559;44.738;20.980;2022-08-24T04:18:56;15.80;;;12.30;;
39886;SDS011;25559;44.738;20.980;2022-08-24T04:21:24;14.10;;;12.00;;
39886;SDS011;25559;44.738;20.980;2022-08-24T04:23:55;15.00;;;12.82;;
39886;SDS011;25559;44.738;20.980;2022-08-24T04:26:23;18.17;;;13.50;;
39886;SDS011;25559;44.738;20.980;2022-08-24T04:28:50;18.48;;;14.27;;
39886;SDS011;25559;44.738;20.980;2022-08-24T04:31:18;17.80;;;14.52;;
39886;SDS011;25559;44.738;20.980;2022-08-24T04:33:44;21.38;;;13.98;;
39886;SDS011;25559;44.738;20.980;2022-08-24T04:36:11;18.02;;;12.88;;
39886;SDS011;25559;44.738;20.980;2022-08-24T04:38:41;18.65;;;12.88;;
39886;SDS011;25559;44.738;20.980;2022-08-24T04:41:28;18.20;;;13.02;;
39886;SDS011;25559;44.738;20.980;2022-08-24T04:43:54;19.80;;;13.77;;
39886;SDS011;25559;44.738;20.980;2022-08-24T04:46:20;16.95;;;14.15;;
39886;SDS011;25559;44.738;20.980;2022-08-24T04:48:47;16.48;;;13.52;;
39886;SDS011;25559;44.738;20.980;2022-08-24T04:51:14;20.85;;;14.93;;
39886;SDS011;25559;44.738;20.980;2022-08-24T04:53:42;19.60;;;15.25;;
39886;SDS011;25559;44.738;20.980;2022-08-24T04:56:11;19.40;;;14.02;;
39886;SDS011;25559;44.738;20.980;2022-08-24T04:58:38;22.98;;;14.75;;
39886;SDS011;25559;44.738;20.980;2022-08-24T05:01:08;22.05;;;16.73;;
39886;SDS011;25559;44.738;20.980;2022-08-24T05:03:37;19.50;;;17.40;;
39886;SDS011;25559;44.738;20.980;2022-08-24T05:06:03;25.08;;;18.95;;
39886;SDS011;25559;44.738;20.980;2022-08-24T05:08:29;23.73;;;19.08;;
39886;SDS011;25559;44.738;20.980;2022-08-24T05:10:56;19.63;;;17.00;;
39886;SDS011;25559;44.738;20.980;2022-08-24T05:13:22;25.85;;;18.55;;
39886;SDS011;25559;44.738;20.980;2022-08-24T05:15:48;20.33;;;18.00;;
39886;SDS011;25559;44.738;20.980;2022-08-24T05:18:14;22.67;;;17.50;;
39886;SDS011;25559;44.738;20.980;2022-08-24T05:20:41;26.95;;;18.70;;
39886;SDS011;25559;44.738;20.980;2022-08-24T05:23:09;23.02;;;18.30;;
39886;SDS011;25559;44.738;20.980;2022-08-24T05:25:37;24.35;;;17.80;;
39886;SDS011;25559;44.738;20.980;2022-08-24T05:28:04;23.33;;;18.60;;
39886;SDS011;25559;44.738;20.980;2022-08-24T05:30:30;22.08;;;17.77;;
39886;SDS011;25559;44.738;20.980;2022-08-24T05:32:56;25.50;;;19.17;;
39886;SDS011;25559;44.738;20.980;2022-08-24T05:35:22;26.60;;;18.90;;
39886;SDS011;25559;44.738;20.980;2022-08-24T05:37:49;24.90;;;17.95;;
39886;SDS011;25559;44.738;20.980;2022-08-24T05:40:16;25.42;;;18.33;;
39886;SDS011;25559;44.738;20.980;2022-08-24T05:42:47;21.83;;;17.92;;
39886;SDS011;25559;44.738;20.980;2022-08-24T05:45:14;22.35;;;17.88;;
39886;SDS011;25559;44.738;20.980;2022-08-24T05:47:41;23.75;;;17.67;;
39886;SDS011;25559;44.738;20.980;2022-08-24T05:50:22;19.25;;;17.17;;
39886;SDS011;25559;44.738;20.980;2022-08-24T05:52:48;23.38;;;17.05;;
39886;SDS011;25559;44.738;20.980;2022-08-24T05:55:13;25.00;;;18.33;;
39886;SDS011;25559;44.738;20.980;2022-08-24T05:57:40;25.17;;;17.33;;
39886;SDS011;25559;44.738;20.980;2022-08-24T06:00:14;22.60;;;17.80;;
39886;SDS011;25559;44.738;20.980;2022-08-24T06:02:46;21.35;;;17.75;;
39886;SDS011;25559;44.738;20.980;2022-08-24T06:05:12;19.45;;;16.95;;
39886;SDS011;25559;44.738;20.980;2022-08-24T06:07:38;21.52;;;16.88;;
39886;SDS011;25559;44.738;20.980;2022-08-24T06:10:05;19.88;;;17.10;;
39886;SDS011;25559;44.738;20.980;2022-08-24T06:12:31;26.02;;;17.08;;
39886;SDS011;25559;44.738;20.980;2022-08-24T06:14:58;20.45;;;17.23;;
39886;SDS011;25559;44.738;20.980;2022-08-24T06:17:24;20.08;;;16.85;;
39886;SDS011;25559;44.738;20.980;2022-08-24T06:19:49;22.15;;;15.93;;
39886;SDS011;25559;44.738;20.980;2022-08-24T06:22:15;19.65;;;16.55;;
39886;SDS011;25559;44.738;20.980;2022-08-24T06:24:41;20.35;;;16.63;;
39886;SDS011;25559;44.738;20.980;2022-08-24T06:27:26;17.85;;;14.95;;
39886;SDS011;25559;44.738;20.980;2022-08-24T06:29:55;19.50;;;16.67;;
39886;SDS011;25559;44.738;20.980;2022-08-24T06:32:59;19.95;;;16.40;;
39886;SDS011;25559;44.738;20.980;2022-08-24T06:35:37;19.33;;;17.20;;
39886;SDS011;25559;44.738;20.980;2022-08-24T06:38:04;20.55;;;15.82;;
39886;SDS011;25559;44.738;20.980;2022-08-24T06:40:30;21.45;;;16.35;;
39886;SDS011;25559;44.738;20.980;2022-08-24T06:42:59;18.90;;;15.52;;
39886;SDS011;25559;44.738;20.980;2022-08-24T06:45:41;22.45;;;15.57;;
39886;SDS011;25559;44.738;20.980;2022-08-24T06:48:07;21.40;;;16.30;;
39886;SDS011;25559;44.738;20.980;2022-08-24T06:50:33;20.92;;;16.35;;
39886;SDS011;25559;44.738;20.980;2022-08-24T06:52:59;23.15;;;15.90;;
39886;SDS011;25559;44.738;20.980;2022-08-24T06:55:26;18.70;;;14.07;;
39886;SDS011;25559;44.738;20.980;2022-08-24T06:57:53;23.48;;;14.57;;
39886;SDS011;25559;44.738;20.980;2022-08-24T07:00:20;20.60;;;15.60;;
39886;SDS011;25559;44.738;20.980;2022-08-24T07:02:46;19.45;;;14.98;;
39886;SDS011;25559;44.738;20.980;2022-08-24T07:05:12;19.67;;;15.25;;
39886;SDS011;25559;44.738;20.980;2022-08-24T07:08:10;22.38;;;15.35;;
39886;SDS011;25559;44.738;20.980;2022-08-24T07:10:35;21.30;;;15.13;;
39886;SDS011;25559;44.738;20.980;2022-08-24T07:13:01;20.88;;;16.00;;
39886;SDS011;25559;44.738;20.980;2022-08-24T07:15:28;19.88;;;15.05;;
39886;SDS011;25559;44.738;20.980;2022-08-24T07:18:14;19.60;;;15.45;;
39886;SDS011;25559;44.738;20.980;2022-08-24T07:20:44;24.40;;;15.17;;
39886;SDS011;25559;44.738;20.980;2022-08-24T07:23:17;23.40;;;14.90;;
39886;SDS011;25559;44.738;20.980;2022-08-24T07:25:44;21.27;;;14.55;;
39886;SDS011;25559;44.738;20.980;2022-08-24T07:28:11;18.80;;;13.52;;
39886;SDS011;25559;44.738;20.980;2022-08-24T07:30:39;19.15;;;13.65;;
39886;SDS011;25559;44.738;20.980;2022-08-24T07:33:05;21.30;;;14.27;;
39886;SDS011;25559;44.738;20.980;2022-08-24T07:35:32;19.20;;;14.63;;
39886;SDS011;25559;44.738;20.980;2022-08-24T07:37:58;19.25;;;13.75;;
39886;SDS011;25559;44.738;20.980;2022-08-24T07:40:25;19.50;;;13.70;;
39886;SDS011;25559;44.738;20.980;2022-08-24T07:42:52;18.27;;;12.75;;
39886;SDS011;25559;44.738;20.980;2022-08-24T07:45:19;19.15;;;13.32;;
39886;SDS011;25559;44.738;20.980;2022-08-24T07:47:49;18.10;;;12.83;;
39886;SDS011;25559;44.738;20.980;2022-08-24T07:50:35;19.63;;;13.88;;
39886;SDS011;25559;44.738;20.980;2022-08-24T07:53:01;22.60;;;15.93;;
39886;SDS011;25559;44.738;20.980;2022-08-24T07:55:30;21.50;;;14.63;;
39886;SDS011;25559;44.738;20.980;2022-08-24T07:57:56;18.92;;;13.63;;
39886;SDS011;25559;44.738;20.980;2022-08-24T08:00:23;20.42;;;13.23;;
39886;SDS011;25559;44.738;20.980;2022-08-24T08:02:55;22.65;;;12.50;;
39886;SDS011;25559;44.738;20.980;2022-08-24T08:05:21;21.20;;;14.82;;
39886;SDS011;25559;44.738;20.980;2022-08-24T08:07:50;23.08;;;13.98;;
39886;SDS011;25559;44.738;20.980;2022-08-24T08:10:17;21.42;;;14.15;;
39886;SDS011;25559;44.738;20.980;2022-08-24T08:12:44;25.55;;;14.23;;
39886;SDS011;25559;44.738;20.980;2022-08-24T08:15:10;18.00;;;13.60;;
39886;SDS011;25559;44.738;20.980;2022-08-24T08:17:44;21.85;;;14.63;;
39886;SDS011;25559;44.738;20.980;2022-08-24T08:20:11;20.17;;;13.25;;
39886;SDS011;25559;44.738;20.980;2022-08-24T08:22:37;21.85;;;15.13;;
39886;SDS011;25559;44.738;20.980;2022-08-24T08:25:43;19.58;;;13.43;;
39886;SDS011;25559;44.738;20.980;2022-08-24T08:28:18;19.25;;;13.20;;
39886;SDS011;25559;44.738;20.980;2022-08-24T08:30:44;22.75;;;13.85;;
39886;SDS011;25559;44.738;20.980;2022-08-24T08:33:11;18.73;;;14.32;;
39886;SDS011;25559;44.738;20.980;2022-08-24T08:35:38;20.92;;;14.68;;
39886;SDS011;25559;44.738;20.980;2022-08-24T08:38:06;21.98;;;15.65;;
39886;SDS011;25559;44.738;20.980;2022-08-24T08:40:40;21.30;;;15.55;;
39886;SDS011;25559;44.738;20.980;2022-08-24T08:43:42;25.73;;;14.55;;
39886;SDS011;25559;44.738;20.980;2022-08-24T08:46:21;21.08;;;14.23;;
39886;SDS011;25559;44.738;20.980;2022-08-24T09:19:39;15.15;;;10.32;;
39886;SDS011;25559;44.738;20.980;2022-08-24T09:27:44;16.80;;;10.18;;
39886;SDS011;25559;44.738;20.980;2022-08-24T09:30:25;14.48;;;10.77;;
39886;SDS011;25559;44.738;20.980;2022-08-24T09:33:04;12.38;;;9.65;;
39886;SDS011;25559;44.738;20.980;2022-08-24T09:44:01;11.75;;;8.93;;
39886;SDS011;25559;44.738;20.980;2022-08-24T09:47:03;13.80;;;9.98;;
39886;SDS011;25559;44.738;20.980;2022-08-24T10:00:49;33.38;;;16.77;;
39886;SDS011;25559;44.738;20.980;2022-08-24T10:31:06;26.38;;;18.05;;
39886;SDS011;25559;44.738;20.980;2022-08-24T10:45:17;23.50;;;15.73;;
39886;SDS011;25559;44.738;20.980;2022-08-24T10:48:21;20.95;;;14.90;;
39886;SDS011;25559;44.738;20.980;2022-08-24T10:50:58;21.17;;;13.68;;
39886;SDS011;25559;44.738;20.980;2022-08-24T10:53:49;22.88;;;15.07;;
39886;SDS011;25559;44.738;20.980;2022-08-24T10:56:18;19.52;;;14.40;;
39886;SDS011;25559;44.738;20.980;2022-08-24T11:01:29;21.55;;;14.55;;
39886;SDS011;25559;44.738;20.980;2022-08-24T11:04:02;20.27;;;15.23;;
39886;SDS011;25559;44.738;20.980;2022-08-24T11:09:09;21.90;;;13.87;;
39886;SDS011;25559;44.738;20.980;2022-08-24T11:11:39;22.98;;;13.68;;
39886;SDS011;25559;44.738;20.980;2022-08-24T11:14:23;17.95;;;12.77;;
39886;SDS011;25559;44.738;20.980;2022-08-24T11:16:53;18.20;;;11.90;;
39886;SDS011;25559;44.738;20.980;2022-08-24T11:19:39;16.30;;;12.13;;
39886;SDS011;25559;44.738;20.980;2022-08-24T11:22:08;16.90;;;11.82;;
39886;SDS011;25559;44.738;20.980;2022-08-24T11:24:52;15.65;;;11.65;;
39886;SDS011;25559;44.738;20.980;2022-08-24T11:27:25;18.33;;;12.05;;
39886;SDS011;25559;44.738;20.980;2022-08-24T11:29:57;19.33;;;12.02;;
39886;SDS011;25559;44.738;20.980;2022-08-24T11:34:50;18.08;;;11.95;;
39886;SDS011;25559;44.738;20.980;2022-08-24T11:37:15;16.98;;;11.63;;
39886;SDS011;25559;44.738;20.980;2022-08-24T11:39:46;16.02;;;12.00;;
39886;SDS011;25559;44.738;20.980;2022-08-24T11:42:17;16.83;;;11.45;;
39886;SDS011;25559;44.738;20.980;2022-08-24T11:48:27;16.00;;;11.02;;
39886;SDS011;25559;44.738;20.980;2022-08-24T11:50:47;16.92;;;10.38;;
39886;SDS011;25559;44.738;20.980;2022-08-24T12:03:57;15.18;;;9.05;;
39886;SDS011;25559;44.738;20.980;2022-08-24T12:06:34;14.48;;;9.00;;
39886;SDS011;25559;44.738;20.980;2022-08-24T12:09:23;18.23;;;9.52;;
39886;SDS011;25559;44.738;20.980;2022-08-24T12:22:47;10.85;;;8.02;;
39886;SDS011;25559;44.738;20.980;2022-08-24T12:25:13;10.52;;;8.77;;
39886;SDS011;25559;44.738;20.980;2022-08-24T12:28:01;14.85;;;8.63;;
39886;SDS011;25559;44.738;20.980;2022-08-24T12:30:28;11.63;;;8.45;;
39886;SDS011;25559;44.738;20.980;2022-08-24T12:32:59;14.10;;;8.05;;
39886;SDS011;25559;44.738;20.980;2022-08-24T12:35:43;13.93;;;8.75;;
39886;SDS011;25559;44.738;20.980;2022-08-24T12:38:23;12.40;;;8.48;;
39886;SDS011;25559;44.738;20.980;2022-08-24T12:43:41;11.60;;;8.35;;
39886;SDS011;25559;44.738;20.980;2022-08-24T12:46:13;12.63;;;7.60;;
39886;SDS011;25559;44.738;20.980;2022-08-24T12:48:43;12.43;;;8.80;;
39886;SDS011;25559;44.738;20.980;2022-08-24T12:51:38;12.02;;;9.25;;
39886;SDS011;25559;44.738;20.980;2022-08-24T13:01:57;12.45;;;8.45;;
39886;SDS011;25559;44.738;20.980;2022-08-24T13:07:28;13.45;;;7.95;;
39886;SDS011;25559;44.738;20.980;2022-08-24T13:10:10;11.27;;;8.50;;
39886;SDS011;25559;44.738;20.980;2022-08-24T13:17:51;15.75;;;10.35;;
39886;SDS011;25559;44.738;20.980;2022-08-24T13:20:21;12.43;;;10.23;;
39886;SDS011;25559;44.738;20.980;2022-08-24T13:43:00;20.35;;;13.23;;
39886;SDS011;25559;44.738;20.980;2022-08-24T13:50:41;16.52;;;12.70;;
39886;SDS011;25559;44.738;20.980;2022-08-24T14:04:33;16.40;;;11.85;;
39886;SDS011;25559;44.738;20.980;2022-08-24T14:10:32;15.80;;;11.95;;
39886;SDS011;25559;44.738;20.980;2022-08-24T14:22:21;11.70;;;9.05;;
39886;SDS011;25559;44.738;20.980;2022-08-24T14:25:11;13.93;;;9.75;;
39886;SDS011;25559;44.738;20.980;2022-08-24T14:27:45;11.38;;;9.35;;
39886;SDS011;25559;44.738;20.980;2022-08-24T14:38:15;9.73;;;7.75;;
39886;SDS011;25559;44.738;20.980;2022-08-24T14:43:30;12.38;;;7.68;;
39886;SDS011;25559;44.738;20.980;2022-08-24T15:00:04;9.88;;;7.40;;
39886;SDS011;25559;44.738;20.980;2022-08-24T15:05:13;11.00;;;8.13;;
39886;SDS011;25559;44.738;20.980;2022-08-24T15:10:24;13.05;;;7.22;;
39886;SDS011;25559;44.738;20.980;2022-08-24T15:13:00;11.90;;;8.00;;
39886;SDS011;25559;44.738;20.980;2022-08-24T15:15:31;12.48;;;7.63;;
39886;SDS011;25559;44.738;20.980;2022-08-24T15:18:27;12.50;;;8.07;;
39886;SDS011;25559;44.738;20.980;2022-08-24T15:21:04;11.57;;;7.75;;
39886;SDS011;25559;44.738;20.980;2022-08-24T15:29:14;9.93;;;7.60;;
39886;SDS011;25559;44.738;20.980;2022-08-24T15:31:53;9.73;;;7.28;;
39886;SDS011;25559;44.738;20.980;2022-08-24T15:34:34;8.63;;;7.00;;
39886;SDS011;25559;44.738;20.980;2022-08-24T15:37:03;10.25;;;6.93;;
39886;SDS011;25559;44.738;20.980;2022-08-24T15:39:29;9.38;;;7.28;;
39886;SDS011;25559;44.738;20.980;2022-08-24T15:41:55;7.90;;;6.82;;
39886;SDS011;25559;44.738;20.980;2022-08-24T15:44:23;11.80;;;7.40;;
39886;SDS011;25559;44.738;20.980;2022-08-24T15:47:03;15.07;;;7.40;;
39886;SDS011;25559;44.738;20.980;2022-08-24T15:55:37;12.65;;;6.57;;
39886;SDS011;25559;44.738;20.980;2022-08-24T16:00:39;11.95;;;8.48;;
39886;SDS011;25559;44.738;20.980;2022-08-24T16:06:16;15.68;;;9.38;;
39886;SDS011;25559;44.738;20.980;2022-08-24T16:11:40;15.95;;;8.93;;
39886;SDS011;25559;44.738;20.980;2022-08-24T16:14:11;11.23;;;8.77;;
39886;SDS011;25559;44.738;20.980;2022-08-24T16:16:47;11.68;;;8.88;;
39886;SDS011;25559;44.738;20.980;2022-08-24T16:19:17;13.77;;;8.48;;
39886;SDS011;25559;44.738;20.980;2022-08-24T16:37:09;10.18;;;7.90;;
39886;SDS011;25559;44.738;20.980;2022-08-24T16:39:35;12.95;;;8.30;;
39886;SDS011;25559;44.738;20.980;2022-08-24T16:42:02;12.02;;;8.73;;
39886;SDS011;25559;44.738;20.980;2022-08-24T16:44:34;11.65;;;8.02;;
39886;SDS011;25559;44.738;20.980;2022-08-24T16:47:02;12.90;;;8.65;;
39886;SDS011;25559;44.738;20.980;2022-08-24T16:49:29;11.60;;;7.50;;
39886;SDS011;25559;44.738;20.980;2022-08-24T16:51:56;8.88;;;6.60;;
39886;SDS011;25559;44.738;20.980;2022-08-24T16:54:22;10.38;;;6.90;;
39886;SDS011;25559;44.738;20.980;2022-08-24T16:56:53;8.68;;;7.32;;
39886;SDS011;25559;44.738;20.980;2022-08-24T16:59:23;8.50;;;6.85;;
39886;SDS011;25559;44.738;20.980;2022-08-24T17:01:51;11.10;;;7.00;;
39886;SDS011;25559;44.738;20.980;2022-08-24T17:04:17;9.57;;;8.00;;
39886;SDS011;25559;44.738;20.980;2022-08-24T17:06:43;11.98;;;7.82;;
39886;SDS011;25559;44.738;20.980;2022-08-24T17:09:09;11.20;;;7.68;;
39886;SDS011;25559;44.738;20.980;2022-08-24T17:11:35;9.43;;;7.07;;
39886;SDS011;25559;44.738;20.980;2022-08-24T17:14:01;10.40;;;7.45;;
39886;SDS011;25559;44.738;20.980;2022-08-24T17:16:28;12.32;;;7.55;;
39886;SDS011;25559;44.738;20.980;2022-08-24T17:18:55;10.57;;;7.10;;
39886;SDS011;25559;44.738;20.980;2022-08-24T17:21:23;12.23;;;7.25;;
39886;SDS011;25559;44.738;20.980;2022-08-24T17:23:49;9.82;;;7.18;;
39886;SDS011;25559;44.738;20.980;2022-08-24T17:26:15;9.70;;;7.85;;
39886;SDS011;25559;44.738;20.980;2022-08-24T17:28:42;14.80;;;8.32;;
39886;SDS011;25559;44.738;20.980;2022-08-24T17:31:11;12.35;;;8.27;;
39886;SDS011;25559;44.738;20.980;2022-08-24T17:33:38;13.65;;;8.23;;
39886;SDS011;25559;44.738;20.980;2022-08-24T17:36:04;10.90;;;8.27;;
39886;SDS011;25559;44.738;20.980;2022-08-24T17:38:33;13.77;;;7.78;;
39886;SDS011;25559;44.738;20.980;2022-08-24T17:41:06;10.18;;;7.63;;
39886;SDS011;25559;44.738;20.980;2022-08-24T17:43:33;12.02;;;7.95;;
39886;SDS011;25559;44.738;20.980;2022-08-24T17:45:59;9.32;;;8.00;;
39886;SDS011;25559;44.738;20.980;2022-08-24T17:48:25;9.57;;;7.88;;
39886;SDS011;25559;44.738;20.980;2022-08-24T17:50:51;12.13;;;8.65;;
39886;SDS011;25559;44.738;20.980;2022-08-24T17:53:18;11.75;;;8.23;;
39886;SDS011;25559;44.738;20.980;2022-08-24T17:55:44;14.10;;;10.07;;
39886;SDS011;25559;44.738;20.980;2022-08-24T17:58:10;12.25;;;8.48;;
39886;SDS011;25559;44.738;20.980;2022-08-24T18:00:36;12.15;;;8.73;;
39886;SDS011;25559;44.738;20.980;2022-08-24T18:03:02;11.18;;;9.07;;
39886;SDS011;25559;44.738;20.980;2022-08-24T18:05:28;14.25;;;8.82;;
39886;SDS011;25559;44.738;20.980;2022-08-24T18:07:55;13.35;;;9.77;;
39886;SDS011;25559;44.738;20.980;2022-08-24T18:10:23;11.98;;;9.05;;
39886;SDS011;25559;44.738;20.980;2022-08-24T18:12:52;12.75;;;8.73;;
39886;SDS011;25559;44.738;20.980;2022-08-24T18:15:18;12.00;;;9.27;;
39886;SDS011;25559;44.738;20.980;2022-08-24T18:17:45;14.68;;;9.52;;
39886;SDS011;25559;44.738;20.980;2022-08-24T18:20:14;12.68;;;8.98;;
39886;SDS011;25559;44.738;20.980;2022-08-24T18:22:42;13.40;;;8.85;;
39886;SDS011;25559;44.738;20.980;2022-08-24T18:25:15;15.55;;;11.95;;
39886;SDS011;25559;44.738;20.980;2022-08-24T18:27:42;16.23;;;11.50;;
39886;SDS011;25559;44.738;20.980;2022-08-24T18:30:29;18.80;;;12.98;;
39886;SDS011;25559;44.738;20.980;2022-08-24T18:32:55;18.45;;;13.20;;
39886;SDS011;25559;44.738;20.980;2022-08-24T18:35:21;19.75;;;14.10;;
39886;SDS011;25559;44.738;20.980;2022-08-24T18:37:47;24.98;;;17.60;;
39886;SDS011;25559;44.738;20.980;2022-08-24T18:40:14;24.67;;;18.80;;
39886;SDS011;25559;44.738;20.980;2022-08-24T18:42:40;25.17;;;17.27;;
39886;SDS011;25559;44.738;20.980;2022-08-24T18:45:07;21.83;;;16.48;;
39886;SDS011;25559;44.738;20.980;2022-08-24T18:47:35;23.80;;;16.33;;
39886;SDS011;25559;44.738;20.980;2022-08-24T18:50:02;18.13;;;14.18;;
39886;SDS011;25559;44.738;20.980;2022-08-24T18:52:29;18.70;;;14.55;;
39886;SDS011;25559;44.738;20.980;2022-08-24T18:54:55;20.35;;;14.55;;
39886;SDS011;25559;44.738;20.980;2022-08-24T18:57:21;24.67;;;15.10;;